Time;durP1;ratioP1;P1;durP2;ratioP2;P2;SDS_P1;SDS_P2;PMS_P1;PMS_P2;Temp;Humidity;BMP_temperature;BMP_pressure;BME280_temperature;BME280_humidity;BME280_pressure;Samples;Min_cycle;Max_cycle;Signal;HPM_P1;HPM_P2
2023/12/06 00:01:48;;;;;;;28.63;18.87;;;7.60;99.90;;;;;;7278877;19;20200;-78
2023/12/06 00:04:14;;;;;;;33.33;19.20;;;7.60;99.90;;;;;;7277075;19;20651;-77
2023/12/06 00:06:40;;;;;;;32.40;20.20;;;7.60;99.90;;;;;;7277819;19;20189;-78
2023/12/06 00:09:06;;;;;;;31.87;20.23;;;7.60;99.90;;;;;;7280675;19;20264;-76
2023/12/06 00:11:31;;;;;;;27.73;18.53;;;7.60;99.90;;;;;;7299233;19;20200;-77
2023/12/06 00:13:57;;;;;;;36.47;21.10;;;7.60;99.90;;;;;;7275310;19;20971;-77
2023/12/06 00:16:23;;;;;;;32.20;19.90;;;7.60;99.90;;;;;;7276686;19;20229;-76
2023/12/06 00:18:49;;;;;;;32.73;20.37;;;7.70;99.90;;;;;;7276539;19;20181;-76
2023/12/06 00:21:15;;;;;;;31.33;20.80;;;7.70;99.90;;;;;;7276388;19;20184;-76
2023/12/06 00:23:41;;;;;;;34.40;21.20;;;7.70;99.90;;;;;;7277479;19;20734;-76
2023/12/06 00:26:07;;;;;;;32.60;21.23;;;7.70;99.90;;;;;;7277775;19;20201;-75
2023/12/06 00:28:33;;;;;;;33.47;20.53;;;7.80;99.90;;;;;;7297037;19;20184;-77
2023/12/06 00:30:58;;;;;;;36.37;21.83;;;7.80;99.90;;;;;;7276574;19;20188;-78
2023/12/06 00:33:24;;;;;;;34.40;21.70;;;7.80;99.90;;;;;;7277762;19;20193;-77
2023/12/06 00:35:50;;;;;;;34.37;22.00;;;7.80;99.90;;;;;;7277017;19;20185;-77
2023/12/06 00:38:16;;;;;;;37.23;21.60;;;7.80;99.90;;;;;;7276289;19;20740;-76
2023/12/06 00:40:44;;;;;;;35.97;22.43;;;7.80;99.90;;;;;;7276342;19;20248;-77
2023/12/06 00:43:10;;;;;;;37.43;21.30;;;7.80;99.90;;;;;;7276053;19;20188;-78
2023/12/06 00:45:35;;;;;;;35.70;22.50;;;7.80;99.90;;;;;;7281773;19;20196;-76
2023/12/06 00:48:01;;;;;;;35.33;22.17;;;7.80;99.90;;;;;;7297903;19;20181;-76
2023/12/06 00:50:27;;;;;;;37.50;22.43;;;7.80;99.90;;;;;;7277520;19;20189;-77
2023/12/06 00:52:53;;;;;;;37.90;22.40;;;7.90;99.90;;;;;;7276520;19;20217;-77
2023/12/06 00:55:19;;;;;;;33.97;21.47;;;7.90;99.90;;;;;;7276971;19;20184;-77
2023/12/06 00:57:44;;;;;;;35.43;21.33;;;7.90;99.90;;;;;;7275667;19;20221;-76
2023/12/06 01:00:11;;;;;;;38.03;23.07;;;7.90;99.90;;;;;;7278665;19;20248;-77
2023/12/06 01:02:38;;;;;;;40.20;23.03;;;7.90;99.90;;;;;;7276101;19;20192;-76
2023/12/06 01:05:05;;;;;;;36.17;22.53;;;7.90;99.90;;;;;;7299342;19;20181;-78
2023/12/06 01:07:30;;;;;;;37.80;23.77;;;8.00;99.90;;;;;;7277380;19;20592;-77
2023/12/06 01:09:56;;;;;;;40.10;23.27;;;8.00;99.90;;;;;;7275368;19;20209;-77
2023/12/06 01:12:22;;;;;;;36.43;23.10;;;8.10;99.90;;;;;;7277066;19;20681;-77
2023/12/06 01:14:48;;;;;;;38.77;23.77;;;8.10;99.90;;;;;;7276204;19;20252;-77
2023/12/06 01:17:13;;;;;;;39.50;23.20;;;8.00;99.90;;;;;;7275085;19;20181;-77
2023/12/06 01:19:39;;;;;;;40.60;23.53;;;7.90;99.90;;;;;;7275442;19;20185;-74
2023/12/06 01:22:05;;;;;;;36.13;22.93;;;7.90;99.90;;;;;;7288883;19;20189;-77
2023/12/06 01:24:31;;;;;;;39.90;24.70;;;7.90;99.90;;;;;;7290833;19;20185;-75
2023/12/06 01:26:56;;;;;;;38.33;24.27;;;8.00;99.90;;;;;;7274470;19;20288;-75
2023/12/06 01:29:22;;;;;;;36.73;23.90;;;8.00;99.90;;;;;;7277300;19;20224;-75
2023/12/06 01:31:48;;;;;;;38.63;24.40;;;8.10;99.90;;;;;;7275831;19;20185;-74
2023/12/06 01:34:14;;;;;;;42.30;23.80;;;8.10;99.90;;;;;;7276428;19;20196;-74
2023/12/06 01:36:40;;;;;;;39.43;24.63;;;8.10;99.90;;;;;;7275053;19;20193;-75
2023/12/06 01:39:06;;;;;;;38.40;23.33;;;8.10;99.90;;;;;;7287254;19;20185;-76
2023/12/06 01:41:31;;;;;;;37.60;24.43;;;8.10;99.90;;;;;;7304824;19;20648;-77
2023/12/06 01:43:57;;;;;;;39.13;24.63;;;8.00;99.90;;;;;;7281483;19;20695;-76
2023/12/06 01:46:23;;;;;;;40.17;24.43;;;8.00;99.90;;;;;;7282787;19;20197;-76
2023/12/06 01:48:49;;;;;;;39.07;23.93;;;8.00;99.90;;;;;;7283014;19;20192;-76
2023/12/06 01:51:17;;;;;;;36.87;23.63;;;8.00;99.90;;;;;;7282766;19;20192;-76
2023/12/06 01:53:43;;;;;;;38.00;23.97;;;8.00;99.90;;;;;;7282594;19;20201;-77
2023/12/06 01:56:10;;;;;;;38.87;24.33;;;8.00;99.90;;;;;;7282024;19;20555;-75
2023/12/06 01:58:37;;;;;;;37.70;24.00;;;8.00;99.90;;;;;;7280654;19;20198;-74
2023/12/06 02:01:04;;;;;;;41.30;24.40;;;8.10;99.90;;;;;;7303455;19;20210;-77
2023/12/06 02:03:31;;;;;;;37.93;23.87;;;8.10;99.90;;;;;;7284124;19;20197;-76
2023/12/06 02:05:59;;;;;;;34.83;23.57;;;8.10;99.90;;;;;;7286495;19;20196;-76
2023/12/06 02:08:25;;;;;;;40.30;24.10;;;8.10;99.90;;;;;;7281897;19;20206;-75
2023/12/06 02:10:51;;;;;;;36.10;23.50;;;8.20;99.90;;;;;;7281560;19;20211;-76
2023/12/06 02:13:17;;;;;;;38.30;23.00;;;8.10;99.90;;;;;;7282325;19;20538;-79
2023/12/06 02:15:44;;;;;;;35.83;23.53;;;8.20;99.90;;;;;;7280064;19;20193;-76
2023/12/06 02:18:10;;;;;;;39.87;23.90;;;8.20;99.90;;;;;;7281169;19;20754;-76
2023/12/06 02:20:36;;;;;;;39.27;24.10;;;8.20;99.90;;;;;;7291396;19;20188;-75
2023/12/06 02:23:04;;;;;;;36.70;24.23;;;8.30;99.90;;;;;;7303175;19;20194;-76
2023/12/06 02:25:29;;;;;;;40.37;24.40;;;8.40;99.90;;;;;;7282289;19;20217;-75
2023/12/06 02:27:55;;;;;;;38.07;24.57;;;8.40;99.90;;;;;;7280636;19;20198;-75
2023/12/06 02:30:21;;;;;;;37.80;24.20;;;8.40;99.90;;;;;;7280981;19;20188;-76
2023/12/06 02:32:47;;;;;;;43.03;25.53;;;8.40;99.90;;;;;;7280267;19;20185;-76
2023/12/06 02:35:29;;;;;;;40.17;24.93;;;8.40;99.90;;;;;;7281293;19;20258;-75
2023/12/06 02:37:58;;;;;;;39.97;25.13;;;8.50;99.90;;;;;;7281878;19;20205;-75
2023/12/06 02:40:27;;;;;;;45.17;24.93;;;8.50;99.90;;;;;;7278047;19;20786;-75
2023/12/06 02:42:53;;;;;;;41.57;23.83;;;8.50;99.90;;;;;;7279222;19;20204;-75
2023/12/06 02:45:19;;;;;;;41.03;23.70;;;8.40;99.90;;;;;;7278878;19;20220;-75
2023/12/06 02:47:45;;;;;;;40.07;24.40;;;8.20;99.90;;;;;;7278916;19;20213;-76
2023/12/06 02:50:11;;;;;;;38.70;23.70;;;8.10;99.90;;;;;;7279476;19;20188;-76
2023/12/06 02:52:37;;;;;;;36.50;23.63;;;8.00;99.90;;;;;;7281104;19;20189;-76
2023/12/06 02:55:03;;;;;;;38.37;23.03;;;8.00;99.90;;;;;;7301554;19;20887;-76
2023/12/06 02:57:29;;;;;;;34.93;22.63;;;7.80;99.90;;;;;;7281821;19;20205;-76
2023/12/06 02:59:55;;;;;;;36.40;22.80;;;7.80;99.90;;;;;;7281015;19;20198;-76
2023/12/06 03:02:21;;;;;;;40.00;23.20;;;7.60;99.90;;;;;;7280427;19;20181;-76
2023/12/06 03:04:46;;;;;;;39.37;24.03;;;7.60;99.90;;;;;;7279226;19;20204;-76
2023/12/06 03:07:12;;;;;;;36.57;22.93;;;7.50;99.90;;;;;;7279084;19;20200;-76
2023/12/06 03:09:38;;;;;;;40.97;24.80;;;7.40;99.90;;;;;;7279623;19;20953;-75
2023/12/06 03:12:04;;;;;;;36.57;23.67;;;7.40;99.90;;;;;;7302022;19;20176;-75
2023/12/06 03:14:30;;;;;;;39.10;24.43;;;7.30;99.90;;;;;;7279588;19;20185;-75
2023/12/06 03:16:55;;;;;;;39.90;23.27;;;7.20;99.90;;;;;;7279857;19;20174;-76
2023/12/06 03:19:21;;;;;;;42.00;23.87;;;7.10;99.90;;;;;;7278637;19;20243;-75
2023/12/06 03:21:47;;;;;;;39.17;23.87;;;7.00;99.90;;;;;;7277965;19;20272;-75
2023/12/06 03:24:12;;;;;;;44.17;24.53;;;6.90;99.90;;;;;;7279017;19;20181;-75
2023/12/06 03:26:38;;;;;;;44.90;24.33;;;7.00;99.90;;;;;;7276641;19;20184;-75
2023/12/06 03:29:04;;;;;;;41.40;22.90;;;7.00;99.90;;;;;;7300401;19;20195;-76
2023/12/06 03:31:30;;;;;;;43.03;24.23;;;6.90;99.90;;;;;;7279452;19;20351;-75
2023/12/06 03:33:55;;;;;;;42.40;24.60;;;6.80;99.90;;;;;;7279578;19;20185;-75
2023/12/06 03:36:21;;;;;;;46.63;24.53;;;6.70;99.90;;;;;;7282146;19;20196;-75
2023/12/06 03:38:47;;;;;;;43.27;23.37;;;6.70;99.90;;;;;;7278315;19;20647;-76
2023/12/06 03:41:13;;;;;;;46.73;22.90;;;6.60;99.90;;;;;;7279092;19;20548;-76
2023/12/06 03:43:38;;;;;;;43.93;23.03;;;6.60;99.90;;;;;;7277878;19;20612;-75
2023/12/06 03:46:06;;;;;;;37.27;22.47;;;6.60;99.90;;;;;;7298980;19;20188;-76
2023/12/06 03:48:32;;;;;;;43.40;23.63;;;6.60;99.90;;;;;;7279397;19;20213;-76
2023/12/06 03:50:58;;;;;;;44.07;23.53;;;6.60;99.90;;;;;;7279626;19;20184;-76
2023/12/06 03:53:24;;;;;;;39.73;23.63;;;6.70;99.90;;;;;;7278861;19;20538;-77
2023/12/06 03:55:50;;;;;;;42.17;23.67;;;6.80;99.90;;;;;;7277498;19;20202;-78
2023/12/06 03:58:16;;;;;;;38.13;22.13;;;6.90;99.90;;;;;;7277133;19;20193;-76
2023/12/06 04:00:41;;;;;;;47.73;22.77;;;6.90;99.90;;;;;;7278993;19;20644;-77
2023/12/06 04:03:07;;;;;;;38.20;21.43;;;7.00;99.90;;;;;;7276110;19;20181;-76
2023/12/06 04:05:33;;;;;;;35.47;20.47;;;7.10;99.90;;;;;;7297881;19;20213;-76
2023/12/06 04:07:59;;;;;;;33.40;20.13;;;7.00;99.90;;;;;;7278004;19;20191;-76
2023/12/06 04:10:24;;;;;;;34.93;20.90;;;7.00;99.90;;;;;;7278833;19;21891;-76
2023/12/06 04:12:50;;;;;;;35.67;20.53;;;7.00;99.90;;;;;;7278704;19;20192;-80
2023/12/06 04:15:16;;;;;;;33.60;20.07;;;7.10;99.90;;;;;;7277444;19;20577;-76
2023/12/06 04:17:41;;;;;;;32.70;18.27;;;7.00;99.90;;;;;;7278144;19;20227;-76
2023/12/06 04:20:08;;;;;;;29.37;18.00;;;6.90;99.90;;;;;;7279829;19;20192;-76
2023/12/06 04:22:35;;;;;;;29.97;17.37;;;6.90;99.90;;;;;;7299430;19;20533;-76
2023/12/06 04:25:01;;;;;;;30.43;17.30;;;6.80;99.90;;;;;;7278077;19;20191;-77
2023/12/06 04:27:28;;;;;;;29.73;17.43;;;6.80;99.90;;;;;;7278001;19;20199;-76
2023/12/06 04:29:54;;;;;;;27.03;16.43;;;6.80;99.90;;;;;;7277572;19;20273;-76
2023/12/06 04:32:20;;;;;;;28.27;16.57;;;6.80;99.90;;;;;;7278150;19;20197;-76
2023/12/06 04:34:53;;;;;;;30.50;16.70;;;6.70;99.90;;;;;;7275048;19;20228;-76
2023/12/06 04:37:19;;;;;;;28.23;16.00;;;6.70;99.90;;;;;;7277627;19;20184;-76
2023/12/06 04:39:45;;;;;;;29.23;17.37;;;6.80;99.90;;;;;;7276812;19;20284;-76
2023/12/06 04:42:10;;;;;;;29.07;16.50;;;6.90;99.90;;;;;;7276955;19;20193;-75
2023/12/06 04:44:37;;;;;;;30.73;17.10;;;6.90;99.90;;;;;;7286864;19;20210;-75
2023/12/06 04:47:03;;;;;;;31.53;17.03;;;6.90;99.90;;;;;;7299531;19;20185;-77
2023/12/06 04:49:28;;;;;;;29.43;15.97;;;6.90;99.90;;;;;;7278476;19;20318;-76
2023/12/06 04:51:54;;;;;;;31.67;15.77;;;6.80;99.90;;;;;;7275918;19;20199;-76
2023/12/06 04:54:20;;;;;;;32.43;16.00;;;6.80;99.90;;;;;;7275910;19;20206;-80
2023/12/06 04:56:46;;;;;;;29.00;15.57;;;6.80;99.90;;;;;;7276827;19;20256;-76
2023/12/06 04:59:11;;;;;;;29.60;16.20;;;6.80;99.90;;;;;;7277133;19;20199;-76
2023/12/06 05:01:37;;;;;;;37.20;21.60;;;6.90;99.90;;;;;;7277786;19;20692;-75
2023/12/06 05:04:03;;;;;;;29.83;17.63;;;6.70;99.90;;;;;;7298518;19;20189;-77
2023/12/06 05:06:29;;;;;;;29.67;17.13;;;6.80;99.90;;;;;;7276980;19;20199;-76
2023/12/06 05:08:54;;;;;;;32.57;17.10;;;6.80;99.90;;;;;;7277846;19;20676;-76
2023/12/06 05:11:20;;;;;;;28.83;16.13;;;6.80;99.90;;;;;;7278285;19;20192;-75
2023/12/06 05:13:46;;;;;;;29.53;16.07;;;6.80;99.90;;;;;;7281201;19;20803;-76
2023/12/06 05:16:11;;;;;;;29.40;16.13;;;6.80;99.90;;;;;;7285124;19;20201;-75
2023/12/06 05:18:37;;;;;;;32.43;17.77;;;6.70;99.90;;;;;;7286710;19;20185;-75
2023/12/06 05:21:03;;;;;;;30.77;17.30;;;6.80;99.90;;;;;;7305755;19;20281;-79
2023/12/06 05:23:29;;;;;;;30.60;17.53;;;6.80;99.90;;;;;;7285820;19;20197;-76
2023/12/06 05:25:54;;;;;;;29.13;16.97;;;6.80;99.90;;;;;;7284522;19;20546;-76
2023/12/06 05:28:20;;;;;;;29.60;17.23;;;6.90;99.90;;;;;;7283591;19;20199;-76
2023/12/06 05:30:46;;;;;;;33.60;17.40;;;7.00;99.90;;;;;;7281277;19;20188;-77
2023/12/06 05:33:12;;;;;;;33.63;16.63;;;7.00;99.90;;;;;;7281872;19;20192;-76
2023/12/06 05:35:37;;;;;;;31.90;16.93;;;6.90;99.90;;;;;;7281986;19;20307;-76
2023/12/06 05:38:03;;;;;;;31.23;17.77;;;6.90;99.90;;;;;;7304937;19;20186;-76
2023/12/06 05:40:30;;;;;;;32.30;17.50;;;6.90;99.90;;;;;;7281669;19;20264;-77
2023/12/06 05:42:56;;;;;;;34.50;18.40;;;6.90;99.90;;;;;;7282675;19;20201;-76
2023/12/06 05:45:22;;;;;;;31.37;17.00;;;6.90;99.90;;;;;;7280840;19;20192;-77
2023/12/06 05:47:47;;;;;;;28.73;15.70;;;6.90;99.90;;;;;;7281172;19;20189;-76
2023/12/06 05:50:14;;;;;;;33.80;16.70;;;7.00;99.90;;;;;;7281398;19;20189;-78
2023/12/06 05:52:39;;;;;;;27.80;15.57;;;7.00;99.90;;;;;;7281514;19;20690;-76
2023/12/06 05:55:05;;;;;;;30.27;16.03;;;7.00;99.90;;;;;;7302898;19;20276;-75
2023/12/06 05:57:32;;;;;;;32.47;16.03;;;7.00;99.90;;;;;;7283161;19;20199;-76
2023/12/06 06:00:01;;;;;;;32.77;16.40;;;7.00;99.90;;;;;;7280785;19;20194;-78
2023/12/06 06:02:36;;;;;;;30.97;16.77;;;7.00;99.90;;;;;;7275171;19;20188;-75
2023/12/06 06:05:02;;;;;;;33.43;17.30;;;7.10;99.90;;;;;;7295937;19;20709;-76
2023/12/06 06:07:27;;;;;;;33.37;16.73;;;7.10;99.90;;;;;;7281691;19;20216;-77
2023/12/06 06:09:53;;;;;;;29.10;16.20;;;7.10;99.90;;;;;;7281914;19;20255;-76
2023/12/06 06:12:19;;;;;;;34.60;17.07;;;7.20;99.90;;;;;;7283259;19;20284;-76
2023/12/06 06:14:44;;;;;;;31.47;16.37;;;7.10;99.90;;;;;;7280176;19;20188;-75
2023/12/06 06:17:10;;;;;;;27.27;15.13;;;7.20;99.90;;;;;;7281603;19;20200;-76
2023/12/06 06:19:36;;;;;;;33.97;16.27;;;7.20;99.90;;;;;;7298654;19;20640;-75
2023/12/06 06:22:02;;;;;;;29.17;16.00;;;7.20;99.90;;;;;;7290974;19;20694;-77
2023/12/06 06:24:27;;;;;;;30.00;16.13;;;7.20;99.90;;;;;;7277953;19;20189;-77
2023/12/06 06:26:53;;;;;;;29.77;16.23;;;7.10;99.90;;;;;;7280605;19;20185;-76
2023/12/06 06:29:19;;;;;;;26.63;15.77;;;7.10;99.90;;;;;;7282924;19;20223;-77
2023/12/06 06:31:45;;;;;;;29.90;15.60;;;7.10;99.90;;;;;;7282709;19;20557;-77
2023/12/06 06:34:10;;;;;;;28.20;15.30;;;7.20;99.90;;;;;;7282966;19;20197;-77
2023/12/06 06:36:36;;;;;;;26.67;14.97;;;7.20;99.90;;;;;;7304103;19;20203;-75
2023/12/06 06:39:02;;;;;;;34.40;15.57;;;7.10;99.90;;;;;;7298418;19;20311;-77
2023/12/06 06:41:28;;;;;;;29.63;15.10;;;7.10;99.90;;;;;;7282189;19;20680;-79
2023/12/06 06:43:54;;;;;;;25.23;14.27;;;7.00;99.90;;;;;;7280759;19;20188;-78
2023/12/06 06:46:20;;;;;;;34.27;15.87;;;7.00;99.90;;;;;;7282504;19;20279;-77
2023/12/06 06:48:45;;;;;;;27.80;15.27;;;7.00;99.90;;;;;;7283721;19;20564;-78
2023/12/06 06:51:11;;;;;;;27.83;15.63;;;6.90;99.90;;;;;;7282598;19;21270;-77
2023/12/06 06:53:37;;;;;;;30.70;15.67;;;6.80;99.90;;;;;;7292222;19;20197;-81
2023/12/06 06:56:03;;;;;;;33.50;15.67;;;6.80;99.90;;;;;;7303493;19;20270;-76
2023/12/06 06:58:29;;;;;;;32.70;14.97;;;6.80;99.90;;;;;;7281243;19;20181;-76
2023/12/06 07:00:54;;;;;;;26.87;14.33;;;6.90;99.90;;;;;;7280440;19;20189;-76
2023/12/06 07:03:21;;;;;;;26.40;13.70;;;6.90;99.90;;;;;;7278845;19;20196;-76
2023/12/06 07:05:47;;;;;;;29.10;13.73;;;6.90;99.90;;;;;;7278959;19;20189;-75
2023/12/06 07:08:12;;;;;;;25.87;13.53;;;6.90;99.90;;;;;;7279935;19;20561;-76
2023/12/06 07:10:38;;;;;;;27.50;13.30;;;6.90;99.90;;;;;;7280613;19;20185;-75
2023/12/06 07:13:05;;;;;;;29.33;13.27;;;6.90;99.90;;;;;;7300949;19;20194;-75
2023/12/06 07:15:31;;;;;;;26.77;13.13;;;6.90;99.90;;;;;;7279843;19;20181;-77
2023/12/06 07:17:57;;;;;;;24.27;12.20;;;7.00;99.90;;;;;;7281196;19;20188;-77
2023/12/06 07:20:24;;;;;;;24.33;12.97;;;7.00;99.90;;;;;;7281728;19;20191;-76
2023/12/06 07:22:50;;;;;;;24.00;12.77;;;7.00;99.90;;;;;;7281698;19;20203;-77
2023/12/06 07:25:16;;;;;;;22.57;11.00;;;7.20;99.90;;;;;;7281092;19;20556;-77
2023/12/06 07:27:45;;;;;;;27.67;11.10;;;7.10;99.90;;;;;;7280582;19;20621;-76
2023/12/06 07:30:18;;;;;;;21.73;11.27;;;7.20;99.90;;;;;;7280022;19;20299;-77
2023/12/06 07:32:45;;;;;;;20.20;10.43;;;7.20;99.90;;;;;;7278809;19;20292;-76
2023/12/06 07:35:10;;;;;;;18.40;10.37;;;7.20;99.90;;;;;;7280562;19;20206;-77
2023/12/06 07:37:36;;;;;;;22.40;10.50;;;7.20;99.90;;;;;;7294025;19;20271;-76
2023/12/06 07:40:03;;;;;;;19.00;10.13;;;7.10;99.90;;;;;;7294940;19;20495;-77
2023/12/06 07:42:29;;;;;;;24.10;10.87;;;7.10;99.90;;;;;;7282039;19;20293;-77
2023/12/06 07:44:55;;;;;;;26.40;11.57;;;7.10;99.90;;;;;;7278526;19;20980;-77
2023/12/06 07:47:21;;;;;;;21.40;10.60;;;7.00;99.90;;;;;;7279359;19;20201;-77
2023/12/06 07:49:46;;;;;;;22.57;10.83;;;7.00;99.90;;;;;;7278414;19;20181;-77
2023/12/06 07:52:12;;;;;;;21.60;10.60;;;6.90;99.90;;;;;;7282113;19;20201;-77
2023/12/06 07:54:38;;;;;;;25.30;13.37;;;6.70;99.90;;;;;;7280587;19;20180;-77
2023/12/06 07:57:05;;;;;;;27.33;13.77;;;6.60;99.90;;;;;;7301910;19;20248;-76
2023/12/06 07:59:30;;;;;;;27.97;13.83;;;6.50;99.90;;;;;;7280306;19;20188;-78
2023/12/06 08:01:56;;;;;;;21.57;12.23;;;6.40;99.90;;;;;;7280947;19;20209;-77
2023/12/06 08:04:23;;;;;;;26.40;13.83;;;6.30;99.90;;;;;;7282973;19;20510;-77
2023/12/06 08:06:49;;;;;;;30.87;13.93;;;6.30;99.90;;;;;;7279707;19;20189;-76
2023/12/06 08:09:17;;;;;;;24.27;13.23;;;6.20;99.90;;;;;;7279389;19;20193;-77
2023/12/06 08:11:43;;;;;;;29.00;14.20;;;6.30;99.90;;;;;;7279259;19;20193;-76
2023/12/06 08:14:09;;;;;;;28.37;13.83;;;6.30;99.90;;;;;;7279648;19;20704;-77
2023/12/06 08:16:34;;;;;;;25.40;13.03;;;6.30;99.90;;;;;;7301405;19;20198;-77
2023/12/06 08:19:00;;;;;;;25.07;13.13;;;6.30;99.90;;;;;;7278541;19;20213;-77
2023/12/06 08:21:26;;;;;;;29.63;13.60;;;6.30;99.90;;;;;;7279683;19;20212;-77
2023/12/06 08:23:51;;;;;;;31.53;14.37;;;6.50;99.90;;;;;;7277958;19;20189;-77
2023/12/06 08:26:17;;;;;;;35.80;14.73;;;6.50;99.90;;;;;;7279864;19;20193;-77
2023/12/06 08:28:43;;;;;;;28.17;14.57;;;6.60;99.90;;;;;;7279647;19;20200;-76
2023/12/06 08:31:09;;;;;;;26.80;14.80;;;6.80;99.90;;;;;;7278640;19;20192;-77
2023/12/06 08:33:35;;;;;;;26.93;14.87;;;6.90;99.90;;;;;;7301429;19;20196;-76
2023/12/06 08:36:01;;;;;;;27.27;14.97;;;7.10;99.90;;;;;;7278985;19;20860;-77
2023/12/06 08:38:27;;;;;;;26.53;14.23;;;7.30;99.90;;;;;;7277068;19;20289;-77
2023/12/06 08:40:53;;;;;;;30.57;13.60;;;7.30;99.90;;;;;;7279881;19;20664;-76
2023/12/06 08:43:18;;;;;;;27.87;12.53;;;7.40;99.90;;;;;;7279166;19;20197;-76
2023/12/06 08:45:44;;;;;;;25.07;12.60;;;7.50;99.90;;;;;;7280215;19;20317;-76
2023/12/06 08:48:10;;;;;;;22.10;11.93;;;7.60;99.90;;;;;;7278962;19;20559;-76
2023/12/06 08:50:35;;;;;;;27.70;11.93;;;7.80;99.90;;;;;;7307125;19;21117;-77
2023/12/06 08:53:01;;;;;;;21.87;11.57;;;7.90;99.90;;;;;;7286338;19;20185;-77
2023/12/06 08:55:27;;;;;;;20.63;11.53;;;8.00;99.90;;;;;;7288246;19;20186;-77
2023/12/06 08:57:53;;;;;;;23.77;11.37;;;8.10;99.90;;;;;;7286084;19;20189;-77
2023/12/06 09:00:19;;;;;;;25.73;12.47;;;8.20;99.90;;;;;;7286109;19;20200;-78
2023/12/06 09:02:44;;;;;;;27.60;12.80;;;8.30;99.90;;;;;;7285549;19;20185;-78
2023/12/06 09:05:11;;;;;;;27.30;11.80;;;8.40;99.90;;;;;;7283279;19;20193;-78
2023/12/06 09:07:38;;;;;;;26.70;11.50;;;8.40;99.90;;;;;;7298465;19;20199;-76
2023/12/06 09:10:04;;;;;;;23.83;11.60;;;8.50;99.90;;;;;;7305613;19;20638;-78
2023/12/06 09:12:31;;;;;;;21.80;11.77;;;8.50;99.90;;;;;;7284872;19;20200;-77
2023/12/06 09:14:56;;;;;;;24.00;11.60;;;8.50;99.90;;;;;;7284798;19;20243;-77
2023/12/06 09:17:22;;;;;;;24.97;12.83;;;8.50;99.90;;;;;;7282202;19;20221;-76
2023/12/06 09:19:48;;;;;;;28.07;12.40;;;8.50;99.90;;;;;;7282818;19;20201;-77
2023/12/06 09:22:15;;;;;;;26.07;12.67;;;8.30;99.90;;;;;;7284128;19;20188;-76
2023/12/06 09:24:43;;;;;;;27.30;12.20;;;8.20;99.90;;;;;;7283642;19;20231;-77
2023/12/06 09:27:09;;;;;;;22.13;12.53;;;8.10;99.90;;;;;;7284208;19;20185;-77
2023/12/06 09:29:35;;;;;;;25.53;12.80;;;8.00;99.90;;;;;;7306365;19;20200;-77
2023/12/06 09:32:00;;;;;;;28.27;13.00;;;7.90;99.90;;;;;;7284486;19;20212;-77
2023/12/06 09:34:26;;;;;;;28.20;13.13;;;7.90;99.90;;;;;;7288868;19;20203;-77
2023/12/06 09:36:52;;;;;;;24.63;13.53;;;8.00;99.90;;;;;;7285100;19;20529;-76
2023/12/06 09:39:20;;;;;;;25.53;13.07;;;8.10;99.90;;;;;;7284900;19;20187;-77
2023/12/06 09:41:46;;;;;;;27.93;13.70;;;8.30;99.90;;;;;;7283264;19;20787;-77
2023/12/06 09:44:14;;;;;;;29.57;13.40;;;8.40;99.90;;;;;;7284569;19;20216;-76
2023/12/06 09:46:42;;;;;;;27.60;13.07;;;8.60;99.90;;;;;;7283238;19;20612;-77
2023/12/06 09:49:08;;;;;;;25.10;12.37;;;8.60;99.90;;;;;;7287905;19;20250;-77
2023/12/06 09:51:34;;;;;;;26.63;13.37;;;8.60;99.90;;;;;;7304359;19;21011;-77
2023/12/06 09:54:00;;;;;;;20.90;11.50;;;8.80;99.90;;;;;;7283500;19;20330;-76
2023/12/06 09:56:26;;;;;;;20.27;10.50;;;9.00;99.90;;;;;;7284018;19;20368;-78
2023/12/06 09:58:52;;;;;;;22.13;11.17;;;9.10;99.90;;;;;;7280937;19;20812;-77
2023/12/06 10:01:18;;;;;;;20.60;11.13;;;9.30;99.90;;;;;;7281027;19;20190;-77
2023/12/06 10:03:46;;;;;;;26.50;10.60;;;9.40;99.90;;;;;;7284322;19;20186;-77
2023/12/06 10:06:12;;;;;;;24.23;11.07;;;9.40;99.90;;;;;;7281878;19;20197;-77
2023/12/06 10:08:38;;;;;;;21.33;10.33;;;9.50;99.90;;;;;;7288917;19;20197;-76
2023/12/06 10:11:09;;;;;;;19.77;9.93;;;9.30;99.90;;;;;;7303919;19;20648;-76
2023/12/06 10:13:36;;;;;;;27.70;10.60;;;9.30;99.90;;;;;;7284296;19;20185;-77
2023/12/06 10:16:11;;;;;;;22.40;10.43;;;9.30;99.90;;;;;;7284023;19;20217;-77
2023/12/06 10:18:37;;;;;;;21.93;10.03;;;9.50;99.90;;;;;;7273875;19;20192;-76
2023/12/06 10:21:03;;;;;;;20.83;10.70;;;9.60;99.90;;;;;;7299332;19;20212;-77
2023/12/06 10:23:30;;;;;;;22.07;10.90;;;9.60;99.90;;;;;;7281597;19;20196;-76
2023/12/06 10:25:56;;;;;;;21.83;10.20;;;9.50;99.90;;;;;;7282507;19;20192;-76
2023/12/06 10:28:22;;;;;;;18.83;9.60;;;9.50;99.90;;;;;;7281257;19;20189;-75
2023/12/06 10:30:59;;;;;;;20.73;9.73;;;9.50;99.90;;;;;;7282040;19;20542;-77
2023/12/06 10:33:26;;;;;;;18.20;9.20;;;9.50;99.90;;;;;;7281311;19;20196;-77
2023/12/06 10:35:53;;;;;;;21.73;9.13;;;9.60;99.90;;;;;;7281669;19;20186;-76
2023/12/06 10:38:21;;;;;;;18.03;9.53;;;9.70;99.90;;;;;;7282137;19;20313;-76
2023/12/06 10:40:47;;;;;;;21.30;9.77;;;9.80;99.90;;;;;;7282538;19;20203;-76
2023/12/06 10:43:15;;;;;;;23.33;10.17;;;9.90;99.90;;;;;;7281345;19;20186;-77
2023/12/06 10:45:42;;;;;;;21.43;11.07;;;9.80;99.90;;;;;;7281249;19;20183;-76
2023/12/06 10:48:08;;;;;;;23.57;11.30;;;9.80;99.90;;;;;;7286853;19;20208;-76
2023/12/06 10:50:34;;;;;;;22.20;10.80;;;9.70;99.90;;;;;;7304056;19;20252;-77
2023/12/06 10:53:01;;;;;;;25.97;10.67;;;9.80;99.90;;;;;;7280417;19;20290;-77
2023/12/06 10:55:31;;;;;;;20.70;10.50;;;9.90;99.90;;;;;;7280065;19;20331;-77
2023/12/06 10:57:58;;;;;;;20.07;10.63;;;10.00;99.90;;;;;;7280893;19;20203;-77
2023/12/06 11:00:26;;;;;;;19.33;10.17;;;10.00;99.90;;;;;;7282341;19;20190;-77
2023/12/06 11:02:55;;;;;;;18.83;9.13;;;9.80;99.90;;;;;;7282814;19;20186;-77
2023/12/06 11:05:24;;;;;;;20.00;9.83;;;9.80;99.90;;;;;;7280289;19;20183;-76
2023/12/06 11:08:17;;;;;;;19.87;9.33;;;9.80;99.90;;;;;;7278149;19;20209;-76
2023/12/06 11:11:01;;;;;;;22.07;9.50;;;10.00;99.90;;;;;;7178159;19;2004544;-76
2023/12/06 11:13:39;;;;;;;21.67;10.87;;;10.10;99.90;;;;;;7279465;19;20205;-76
2023/12/06 11:16:14;;;;;;;19.77;9.87;;;10.10;99.90;;;;;;7279613;19;20426;-77
2023/12/06 11:18:49;;;;;;;21.33;10.27;;;10.10;99.90;;;;;;7176548;19;2004854;-76
2023/12/06 11:21:17;;;;;;;25.27;11.27;;;10.00;99.90;;;;;;7277270;19;20187;-76
2023/12/06 11:23:46;;;;;;;23.73;10.80;;;10.00;99.90;;;;;;7279612;19;20297;-76
2023/12/06 11:26:12;;;;;;;19.90;10.03;;;9.90;99.90;;;;;;7279292;19;20189;-76
2023/12/06 11:28:40;;;;;;;21.33;9.97;;;9.90;99.90;;;;;;7287519;19;20208;-75
2023/12/06 11:31:07;;;;;;;18.83;9.20;;;9.80;99.90;;;;;;7300572;19;20198;-76
2023/12/06 11:33:36;;;;;;;19.53;8.93;;;9.80;99.90;;;;;;7279068;19;20299;-76
2023/12/06 11:36:02;;;;;;;19.37;8.30;;;9.70;99.90;;;;;;7278820;19;20186;-75
2023/12/06 11:38:35;;;;;;;18.17;9.07;;;9.90;99.90;;;;;;7277360;19;20194;-76
2023/12/06 11:41:04;;;;;;;19.43;8.17;;;9.90;99.90;;;;;;7278439;19;20256;-75
2023/12/06 11:43:47;;;;;;;18.57;8.80;;;10.00;99.90;;;;;;7278401;19;20201;-76
2023/12/06 11:46:14;;;;;;;17.37;8.83;;;9.90;99.90;;;;;;7176201;19;2004479;-76
2023/12/06 11:48:43;;;;;;;19.77;7.90;;;10.00;99.90;;;;;;7279300;19;20552;-76
2023/12/06 11:51:20;;;;;;;17.63;7.80;;;10.20;99.90;;;;;;7280043;19;20573;-75
2023/12/06 11:53:46;;;;;;;18.47;7.63;;;10.40;99.90;;;;;;7279716;19;20654;-75
2023/12/06 11:56:19;;;;;;;20.17;7.60;;;10.50;99.90;;;;;;7278098;19;20734;-76
2023/12/06 11:58:45;;;;;;;17.07;8.33;;;10.50;99.90;;;;;;7275951;19;20229;-77
2023/12/06 12:01:11;;;;;;;16.60;8.63;;;10.40;99.90;;;;;;7278543;19;20328;-76
2023/12/06 12:03:38;;;;;;;19.83;8.87;;;10.40;99.90;;;;;;7302698;19;20192;-76
2023/12/06 12:06:04;;;;;;;17.10;8.47;;;10.40;99.90;;;;;;7280576;19;20210;-77
2023/12/06 12:08:31;;;;;;;17.73;8.87;;;10.30;99.90;;;;;;7281362;19;20209;-77
2023/12/06 12:10:58;;;;;;;16.67;8.93;;;10.30;99.90;;;;;;7280254;19;20459;-77
2023/12/06 12:13:23;;;;;;;18.40;8.40;;;10.40;99.90;;;;;;7280531;19;20616;-77
2023/12/06 12:15:54;;;;;;;17.70;9.60;;;10.40;99.90;;;;;;7280854;19;20192;-77
2023/12/06 12:18:20;;;;;;;21.40;9.70;;;10.30;99.90;;;;;;7283679;19;20187;-77
2023/12/06 12:20:46;;;;;;;18.97;8.93;;;10.30;99.90;;;;;;7281162;19;20553;-78
2023/12/06 12:23:12;;;;;;;19.77;9.40;;;10.40;99.90;;;;;;7281156;19;20194;-77
2023/12/06 12:25:48;;;;;;;18.73;8.73;;;10.30;99.90;;;;;;7285403;19;20226;-77
2023/12/06 12:28:23;;;;;;;17.70;9.80;;;10.10;99.90;;;;;;7279019;19;20198;-78
2023/12/06 12:30:55;;;;;;;19.93;9.20;;;10.10;99.90;;;;;;7281655;19;20214;-78
2023/12/06 12:33:22;;;;;;;18.93;9.67;;;10.00;99.90;;;;;;7285204;19;20226;-77
2023/12/06 12:35:48;;;;;;;20.30;8.73;;;10.00;99.90;;;;;;7280816;19;20219;-77